Time;durP1;ratioP1;P1;durP2;ratioP2;P2;SDS_P1;SDS_P2;PMS_P1;PMS_P2;Temp;Humidity;BMP_temperature;BMP_pressure;BME280_temperature;BME280_humidity;BME280_pressure;Samples;Min_cycle;Max_cycle;Signal;HPM_P1;HPM_P2
2022/09/18 00:00:04;;;;;;;9.40;7.30;;;;;;;10.17;78.65;98730.23;106216;1271;96540;-76
2022/09/18 00:03:03;;;;;;;9.60;7.00;;;;;;;10.17;78.70;98727.80;106747;1271;138290;-75
2022/09/18 00:05:37;;;;;;;8.40;6.50;;;;;;;10.16;78.73;98727.82;106491;1270;110159;-76
2022/09/18 00:08:10;;;;;;;9.10;6.90;;;;;;;10.15;78.72;98726.30;107718;1270;138354;-76
2022/09/18 00:10:45;;;;;;;8.30;6.50;;;;;;;10.14;78.81;98728.98;106829;1271;107785;-75
2022/09/18 00:13:17;;;;;;;8.70;6.30;;;;;;;10.14;78.84;98723.41;107774;1271;94615;-76
2022/09/18 00:15:57;;;;;;;7.90;6.60;;;;;;;10.17;78.93;98724.67;107418;1271;138814;-76
2022/09/18 00:18:29;;;;;;;7.30;6.00;;;;;;;10.18;78.99;98728.08;106226;1271;111330;-77
2022/09/18 00:21:07;;;;;;;9.50;6.30;;;;;;;10.19;78.89;98729.76;106103;1269;138040;-76
2022/09/18 00:23:40;;;;;;;8.40;6.50;;;;;;;10.19;78.89;98731.99;106725;1271;108865;-76
2022/09/18 00:26:14;;;;;;;8.20;6.10;;;;;;;10.20;78.92;98734.07;107337;1271;138010;-77
2022/09/18 00:28:46;;;;;;;10.40;6.00;;;;;;;10.20;78.87;98735.79;107826;1270;94828;-77
2022/09/18 00:31:20;;;;;;;8.80;6.10;;;;;;;10.19;79.01;98737.22;107777;1271;110146;-77
2022/09/18 00:33:53;;;;;;;8.10;6.00;;;;;;;10.19;78.87;98731.14;107783;1273;107397;-76
2022/09/18 00:36:25;;;;;;;11.50;6.40;;;;;;;10.19;79.04;98737.21;107767;1271;108737;-77
2022/09/18 00:38:59;;;;;;;9.70;6.20;;;;;;;10.20;79.05;98739.41;107610;1271;139097;-77
2022/09/18 00:41:34;;;;;;;10.30;6.50;;;;;;;10.19;79.10;98739.29;106342;1272;95054;-76
2022/09/18 00:44:37;;;;;;;7.60;6.50;;;;;;;10.19;79.12;98736.67;106267;1270;139317;-76
2022/09/18 00:47:23;;;;;;;8.60;6.70;;;;;;;10.21;79.27;98736.79;105917;1274;108940;-76
2022/09/18 00:50:02;;;;;;;10.80;6.50;;;;;;;10.23;79.24;98739.14;105893;1274;138387;-75
2022/09/18 00:52:44;;;;;;;8.90;6.60;;;;;;;10.23;79.22;98738.08;105948;1274;96686;-76
2022/09/18 00:55:21;;;;;;;10.30;6.60;;;;;;;10.24;79.39;98740.49;105983;1274;96592;-76
2022/09/18 00:57:57;;;;;;;8.30;6.60;;;;;;;10.25;79.35;98745.81;106068;1273;111273;-75
2022/09/18 01:00:30;;;;;;;9.10;6.40;;;;;;;10.26;79.36;98745.58;106073;1274;107881;-75
2022/09/18 01:03:03;;;;;;;8.60;6.60;;;;;;;10.25;79.35;98745.44;105883;1274;138563;-76
2022/09/18 01:05:51;;;;;;;11.10;7.00;;;;;;;10.25;79.36;98740.77;106055;1274;96736;-76
2022/09/18 01:08:35;;;;;;;9.00;6.40;;;;;;;10.26;79.43;98743.11;105907;1274;139056;-76
2022/09/18 01:11:27;;;;;;;8.60;6.40;;;;;;;10.27;79.45;98742.21;106031;1274;111366;-76
2022/09/18 01:14:13;;;;;;;9.80;6.70;;;;;;;10.26;79.51;98740.69;106211;1274;138421;-76
2022/09/18 01:16:53;;;;;;;11.90;6.50;;;;;;;10.26;79.53;98740.53;107538;1272;107691;-76
2022/09/18 01:19:41;;;;;;;11.50;7.30;;;;;;;10.22;79.53;98735.67;106118;1274;97106;-76
2022/09/18 01:22:31;;;;;;;10.90;7.70;;;;;;;10.20;79.59;98731.96;106116;1271;96488;-76
2022/09/18 01:25:17;;;;;;;10.20;7.90;;;;;;;10.19;79.67;98729.39;107870;1270;110068;-74
2022/09/18 01:28:01;;;;;;;12.20;8.50;;;;;;;10.20;79.76;98730.41;107634;1271;138246;-76
2022/09/18 01:30:36;;;;;;;9.40;7.50;;;;;;;10.18;79.82;98726.16;107641;1271;109016;-76
2022/09/18 01:33:18;;;;;;;11.30;7.40;;;;;;;10.18;80.00;98728.39;106057;1271;138030;-77
2022/09/18 01:35:57;;;;;;;10.80;7.10;;;;;;;10.19;79.98;98725.95;106339;1270;96371;-75
2022/09/18 01:38:33;;;;;;;10.00;7.00;;;;;;;10.21;79.93;98726.73;106120;1271;138250;-75
2022/09/18 01:41:10;;;;;;;9.50;6.70;;;;;;;10.20;80.09;98725.52;106257;1270;107663;-76
2022/09/18 01:43:44;;;;;;;10.90;7.30;;;;;;;10.20;80.11;98728.64;106186;1270;140211;-76
2022/09/18 01:46:19;;;;;;;11.90;7.20;;;;;;;10.20;80.11;98727.10;106189;1270;96500;-76
2022/09/18 01:48:58;;;;;;;11.90;6.80;;;;;;;10.20;80.12;98727.63;106332;1270;96577;-74
2022/09/18 01:51:36;;;;;;;11.40;7.10;;;;;;;10.21;80.24;98728.08;106216;1270;138008;-76
2022/09/18 01:54:14;;;;;;;10.00;6.80;;;;;;;10.21;80.23;98722.89;106193;1270;109129;-76
2022/09/18 01:56:52;;;;;;;10.50;7.00;;;;;;;10.20;80.44;98720.98;106095;1271;140008;-76
2022/09/18 01:59:29;;;;;;;10.50;6.80;;;;;;;10.22;80.45;98716.09;106122;1271;96935;-76
2022/09/18 02:02:18;;;;;;;11.20;6.80;;;;;;;10.22;80.47;98710.16;106219;1258;138260;-75
2022/09/18 02:04:58;;;;;;;13.70;6.90;;;;;;;10.21;80.35;98712.80;107445;1270;110173;-75
2022/09/18 02:07:39;;;;;;;12.20;7.10;;;;;;;10.21;80.38;98710.03;106238;1270;138280;-76
2022/09/18 02:10:11;;;;;;;12.80;6.80;;;;;;;10.22;80.48;98706.67;106217;1271;107665;-75
2022/09/18 02:12:45;;;;;;;13.30;7.00;;;;;;;10.23;80.42;98706.48;106189;1270;96959;-76
2022/09/18 02:15:18;;;;;;;12.80;7.20;;;;;;;10.23;80.49;98701.79;106103;1270;138256;-75
2022/09/18 02:18:02;;;;;;;10.80;6.90;;;;;;;10.22;80.47;98703.92;106197;1270;111400;-75
2022/09/18 02:20:44;;;;;;;10.80;6.90;;;;;;;10.21;80.52;98702.55;106138;1270;138223;-76
2022/09/18 02:23:18;;;;;;;11.80;8.10;;;;;;;10.19;80.59;98703.51;106264;1270;107682;-76
2022/09/18 02:25:55;;;;;;;14.50;8.60;;;;;;;10.18;80.64;98703.92;106186;1270;138808;-76
2022/09/18 02:28:29;;;;;;;14.80;8.80;;;;;;;10.17;80.70;98702.40;106197;1270;96347;-76
2022/09/18 02:31:02;;;;;;;15.10;8.40;;;;;;;10.18;80.77;98704.13;106209;1270;111023;-76
2022/09/18 02:33:37;;;;;;;12.90;8.00;;;;;;;10.17;80.87;98702.60;106142;1270;139381;-76
2022/09/18 02:36:24;;;;;;;15.60;8.00;;;;;;;10.17;80.97;98704.14;106325;1270;108890;-76
2022/09/18 02:39:07;;;;;;;14.50;7.40;;;;;;;10.17;80.97;98703.14;106162;1270;138343;-76
2022/09/18 02:41:49;;;;;;;14.40;8.20;;;;;;;10.17;81.03;98703.49;106234;1270;96615;-76
2022/09/18 02:44:30;;;;;;;15.90;7.80;;;;;;;10.16;81.25;98697.80;106177;1270;138994;-76
2022/09/18 02:47:13;;;;;;;15.40;7.70;;;;;;;10.16;81.25;98699.19;107851;1270;108381;-76
2022/09/18 02:49:56;;;;;;;11.50;7.80;;;;;;;10.17;81.39;98701.41;107744;1270;140299;-76
2022/09/18 02:52:33;;;;;;;12.70;7.30;;;;;;;10.17;81.40;98698.95;107764;1270;94699;-75
2022/09/18 02:55:11;;;;;;;15.50;7.40;;;;;;;10.19;81.54;98692.77;107782;1270;94749;-76
2022/09/18 02:57:49;;;;;;;11.70;7.30;;;;;;;10.19;81.54;98691.35;107730;1270;138616;-76
2022/09/18 03:00:22;;;;;;;10.60;7.20;;;;;;;10.21;81.52;98690.05;107860;1270;109943;-76
2022/09/18 03:02:58;;;;;;;15.60;7.90;;;;;;;10.22;81.46;98688.10;107643;1270;139110;-76
2022/09/18 03:05:38;;;;;;;14.80;7.80;;;;;;;10.23;81.57;98681.81;107754;1270;94939;-76
2022/09/18 03:08:11;;;;;;;11.70;7.90;;;;;;;10.24;81.53;98681.23;107652;1270;138950;-76
2022/09/18 03:10:43;;;;;;;11.70;7.00;;;;;;;10.24;81.54;98681.90;107756;1271;111170;-76
2022/09/18 03:13:15;;;;;;;13.00;7.50;;;;;;;10.27;81.64;98680.04;107338;1272;108321;-76
2022/09/18 03:15:47;;;;;;;17.90;7.70;;;;;;;10.30;81.61;98676.23;106110;1270;138229;-75
2022/09/18 03:18:20;;;;;;;13.10;7.50;;;;;;;10.31;81.53;98678.23;106157;1271;96487;-76
2022/09/18 03:20:53;;;;;;;19.00;7.70;;;;;;;10.33;81.61;98671.70;106128;1271;138137;-75
2022/09/18 03:23:26;;;;;;;17.70;7.30;;;;;;;10.34;81.62;98670.63;106160;1273;111245;-75
2022/09/18 03:26:07;;;;;;;12.70;7.50;;;;;;;10.35;81.61;98667.23;106126;1270;138392;-75
2022/09/18 03:28:39;;;;;;;14.10;7.30;;;;;;;10.35;81.61;98668.95;106166;1271;107841;-76
2022/09/18 03:31:12;;;;;;;13.40;7.80;;;;;;;10.37;81.74;98668.02;106113;1271;96936;-76
2022/09/18 03:33:44;;;;;;;17.60;7.70;;;;;;;10.38;81.70;98668.62;106108;1273;139276;-76
2022/09/18 03:36:17;;;;;;;11.10;7.10;;;;;;;10.40;81.84;98673.75;106152;1271;110052;-76
2022/09/18 03:38:49;;;;;;;13.70;7.20;;;;;;;10.42;81.74;98677.09;106083;1271;138455;-75
2022/09/18 03:41:22;;;;;;;12.80;7.50;;;;;;;10.43;81.69;98678.77;106148;1270;108785;-76
2022/09/18 03:43:55;;;;;;;9.80;7.00;;;;;;;10.45;81.77;98681.63;106110;1272;137573;-75
2022/09/18 03:46:27;;;;;;;11.90;7.00;;;;;;;10.46;81.61;98690.45;106213;1272;96590;-76
2022/09/18 03:49:02;;;;;;;17.30;7.50;;;;;;;10.46;81.73;98698.75;106217;1272;111388;-76
2022/09/18 03:51:37;;;;;;;14.80;7.90;;;;;;;10.46;81.69;98703.64;106121;1270;138298;-76
2022/09/18 03:54:13;;;;;;;15.10;7.70;;;;;;;10.49;81.71;98703.14;106229;1271;108912;-75
2022/09/18 03:56:54;;;;;;;16.00;7.50;;;;;;;10.50;81.70;98704.95;106075;1271;138199;-75
2022/09/18 03:59:45;;;;;;;8.40;6.20;;;;;;;10.52;81.68;98708.13;106222;1271;96477;-76
2022/09/18 04:02:37;;;;;;;15.90;7.20;;;;;;;10.52;81.60;98709.71;106052;1271;137874;-75
2022/09/18 04:05:42;;;;;;;13.10;6.70;;;;;;;10.52;81.65;98711.30;105849;1273;109555;-76
2022/09/18 04:08:35;;;;;;;11.00;6.00;;;;;;;10.52;81.65;98713.19;106037;1272;138346;-77
2022/09/18 04:11:23;;;;;;;13.90;7.10;;;;;;;10.51;81.56;98710.13;106130;1273;97147;-77
2022/09/18 04:13:57;;;;;;;16.60;6.90;;;;;;;10.49;81.64;98714.57;106003;1271;138357;-76
2022/09/18 04:16:29;;;;;;;11.10;6.10;;;;;;;10.49;81.71;98713.19;106187;1270;110128;-75
2022/09/18 04:19:01;;;;;;;13.00;6.70;;;;;;;10.49;81.78;98716.80;105091;1271;1454192;-76
2022/09/18 04:21:33;;;;;;;15.00;6.40;;;;;;;10.51;81.94;98717.09;106073;1271;138617;-75
2022/09/18 04:24:06;;;;;;;12.40;5.90;;;;;;;10.52;81.77;98714.73;106154;1270;96475;-75
2022/09/18 04:26:40;;;;;;;13.50;5.80;;;;;;;10.53;81.80;98712.41;106032;1272;138654;-76
2022/09/18 04:29:12;;;;;;;8.30;5.70;;;;;;;10.53;81.66;98711.56;106188;1270;111146;-76
2022/09/18 04:31:45;;;;;;;12.60;6.00;;;;;;;10.52;81.79;98711.63;106085;1271;138257;-75
2022/09/18 04:34:18;;;;;;;13.40;6.10;;;;;;;10.54;81.91;98713.08;106136;1271;108882;-76
2022/09/18 04:36:51;;;;;;;12.00;6.30;;;;;;;10.57;81.84;98712.40;106156;1271;96877;-75
2022/09/18 04:39:24;;;;;;;12.20;5.70;;;;;;;10.57;81.71;98715.30;106075;1273;138093;-76
2022/09/18 04:41:56;;;;;;;14.50;6.20;;;;;;;10.58;81.71;98713.69;106260;1270;111217;-76
2022/09/18 04:44:29;;;;;;;14.10;6.10;;;;;;;10.60;81.91;98718.64;106063;1273;139908;-76
2022/09/18 04:47:01;;;;;;;12.80;6.60;;;;;;;10.62;81.74;98714.89;106209;1270;109302;-76
2022/09/18 04:49:34;;;;;;;15.30;6.00;;;;;;;10.63;81.72;98716.20;105943;1273;138703;-76
2022/09/18 04:52:06;;;;;;;14.40;5.80;;;;;;;10.64;81.74;98713.55;106130;1273;96604;-77
2022/09/18 04:54:38;;;;;;;16.10;6.10;;;;;;;10.65;81.57;98714.38;106164;1273;110438;-76
2022/09/18 04:57:12;;;;;;;13.50;6.00;;;;;;;10.66;81.49;98711.89;106064;1271;138354;-76
2022/09/18 04:59:45;;;;;;;12.10;5.40;;;;;;;10.67;81.61;98712.88;106154;1271;108121;-76
2022/09/18 05:02:18;;;;;;;17.10;6.10;;;;;;;10.69;81.50;98710.67;106024;1271;138258;-77
2022/09/18 05:04:50;;;;;;;12.80;6.10;;;;;;;10.72;81.48;98710.70;106158;1271;96507;-77
2022/09/18 05:07:30;;;;;;;20.40;6.60;;;;;;;10.73;81.59;98710.59;106087;1271;138237;-75
2022/09/18 05:10:03;;;;;;;13.20;6.50;;;;;;;10.75;81.34;98710.33;106122;1271;107869;-77
2022/09/18 05:12:39;;;;;;;13.60;6.30;;;;;;;10.77;81.37;98709.52;106170;1271;107788;-77
2022/09/18 05:15:12;;;;;;;14.60;6.60;;;;;;;10.78;81.15;98713.11;106020;1271;138139;-77
2022/09/18 05:17:45;;;;;;;14.70;6.80;;;;;;;10.78;81.18;98708.78;106209;1271;96574;-77
2022/09/18 05:20:18;;;;;;;13.60;5.90;;;;;;;10.77;81.04;98712.63;106095;1270;138018;-77
2022/09/18 05:22:51;;;;;;;13.80;6.40;;;;;;;10.76;81.05;98712.30;106138;1271;108971;-77
2022/09/18 05:25:28;;;;;;;13.50;6.80;;;;;;;10.76;81.02;98713.36;106189;1271;108826;-77
2022/09/18 05:28:02;;;;;;;11.20;6.20;;;;;;;10.77;81.14;98716.13;107776;1270;94381;-78
2022/09/18 05:30:45;;;;;;;12.80;6.20;;;;;;;10.77;80.97;98714.73;107771;1271;94870;-77
2022/09/18 05:33:18;;;;;;;10.30;6.00;;;;;;;10.75;80.99;98716.40;106224;1271;138086;-76
2022/09/18 05:35:55;;;;;;;14.80;5.70;;;;;;;10.75;80.96;98717.95;106241;1271;108721;-77
2022/09/18 05:38:28;;;;;;;12.40;5.20;;;;;;;10.75;80.97;98720.70;106082;1271;138289;-77
2022/09/18 05:41:02;;;;;;;14.50;6.50;;;;;;;10.77;80.99;98721.67;106162;1271;96651;-77
2022/09/18 05:43:34;;;;;;;15.40;5.90;;;;;;;10.78;81.02;98722.99;106082;1271;138191;-77
2022/09/18 05:46:11;;;;;;;13.80;6.00;;;;;;;10.78;81.00;98725.45;106205;1272;111667;-81
2022/09/18 05:48:50;;;;;;;13.60;5.80;;;;;;;10.78;80.93;98723.17;106154;1271;109122;-78
2022/09/18 05:51:23;;;;;;;12.50;6.00;;;;;;;10.76;80.86;98719.29;107622;1270;139444;-78
2022/09/18 05:53:55;;;;;;;11.50;5.70;;;;;;;10.75;80.95;98718.28;107784;1270;94468;-78
2022/09/18 05:56:40;;;;;;;13.40;6.20;;;;;;;10.76;80.91;98720.50;107594;1273;138056;-78
2022/09/18 05:59:13;;;;;;;12.50;6.10;;;;;;;10.76;80.85;98722.59;107730;1271;111209;-78
2022/09/18 06:01:47;;;;;;;14.60;6.20;;;;;;;10.75;80.59;98724.05;107541;1273;138786;-78
2022/09/18 06:04:23;;;;;;;15.00;6.20;;;;;;;10.74;80.66;98726.17;107777;1271;106776;-77
2022/09/18 06:07:00;;;;;;;10.40;6.20;;;;;;;10.75;80.59;98722.14;107738;1271;95670;-79
2022/09/18 06:09:32;;;;;;;11.10;6.30;;;;;;;10.76;80.56;98724.99;107647;1271;138056;-78
2022/09/18 06:12:05;;;;;;;11.50;5.90;;;;;;;10.76;80.42;98725.02;107768;1271;111071;-78
2022/09/18 06:14:45;;;;;;;10.90;5.40;;;;;;;10.77;80.37;98725.16;107145;1271;138927;-77
2022/09/18 06:17:18;;;;;;;12.30;6.10;;;;;;;10.76;80.28;98727.27;106195;1270;108847;-78
2022/09/18 06:19:51;;;;;;;11.20;5.30;;;;;;;10.77;80.29;98729.48;105952;1273;138878;-78
2022/09/18 06:22:23;;;;;;;11.40;5.40;;;;;;;10.76;80.18;98726.06;106145;1271;96504;-76
2022/09/18 06:24:55;;;;;;;8.20;4.30;;;;;;;10.74;79.88;98730.16;106076;1273;111172;-76
2022/09/18 06:27:34;;;;;;;14.40;4.10;;;;;;;10.69;79.71;98727.86;106039;1271;138790;-76
2022/09/18 06:30:09;;;;;;;9.40;3.70;;;;;;;10.65;79.68;98730.19;106093;1273;108879;-77
2022/09/18 06:32:41;;;;;;;10.80;4.30;;;;;;;10.65;79.80;98730.20;107715;1270;137073;-77
2022/09/18 06:35:13;;;;;;;9.90;4.10;;;;;;;10.63;79.66;98731.52;106525;1271;96556;-77
2022/09/18 06:37:46;;;;;;;8.00;4.00;;;;;;;10.63;79.81;98731.39;106261;1271;138115;-76
2022/09/18 06:40:39;;;;;;;10.40;4.00;;;;;;;10.62;79.62;98736.78;107771;1271;108060;-76
2022/09/18 06:43:23;;;;;;;8.00;3.80;;;;;;;10.59;79.43;98732.09;107753;1271;110281;-76
2022/09/18 06:46:13;;;;;;;6.60;3.50;;;;;;;10.57;79.46;98733.38;106153;1271;96478;-76
2022/09/18 06:48:49;;;;;;;6.70;3.90;;;;;;;10.57;79.33;98730.45;106120;1271;96488;-76
2022/09/18 06:51:21;;;;;;;8.10;4.10;;;;;;;10.56;79.19;98732.95;105973;1273;137967;-75
2022/09/18 06:54:14;;;;;;;8.20;3.60;;;;;;;10.53;79.09;98737.30;106139;1271;109390;-78
2022/09/18 06:56:48;;;;;;;7.30;3.50;;;;;;;10.51;78.95;98739.16;106065;1271;138974;-75
2022/09/18 06:59:22;;;;;;;6.80;3.20;;;;;;;10.49;79.06;98740.98;106080;1273;96521;-76
2022/09/18 07:01:55;;;;;;;5.10;3.20;;;;;;;10.48;78.97;98741.73;106018;1271;138441;-76
2022/09/18 07:04:48;;;;;;;7.30;3.40;;;;;;;10.47;79.07;98743.05;106114;1271;111388;-77
2022/09/18 07:07:21;;;;;;;10.70;3.40;;;;;;;10.43;78.83;98748.13;106139;1271;109051;-76
2022/09/18 07:09:54;;;;;;;6.20;3.10;;;;;;;10.40;78.88;98751.93;106095;1271;106762;-76
2022/09/18 07:12:57;;;;;;;4.90;3.00;;;;;;;10.34;78.69;98748.95;106141;1271;96565;-76
2022/09/18 07:15:29;;;;;;;7.10;3.20;;;;;;;10.30;78.68;98750.92;107608;1271;137832;-76
2022/09/18 07:18:03;;;;;;;6.40;3.10;;;;;;;10.25;78.75;98754.30;106545;1271;110131;-76
2022/09/18 07:20:36;;;;;;;6.40;2.90;;;;;;;10.23;78.84;98752.70;106088;1271;138035;-76
2022/09/18 07:23:08;;;;;;;5.30;2.90;;;;;;;10.21;78.90;98753.98;106172;1271;107982;-77
2022/09/18 07:25:48;;;;;;;5.90;2.90;;;;;;;10.19;78.79;98753.55;106095;1271;138849;-76
2022/09/18 07:28:21;;;;;;;6.30;3.30;;;;;;;10.16;78.87;98755.09;106254;1270;96444;-77
2022/09/18 07:31:05;;;;;;;5.50;3.20;;;;;;;10.13;78.87;98756.84;106206;1271;111321;-77
2022/09/18 07:33:36;;;;;;;;;;;;;;;10.09;78.93;98759.33;106072;1271;139823;-76
2022/09/18 07:36:09;;;;;;;8.10;3.00;;;;;;;10.04;79.09;98754.73;106132;1273;108107;-76
2022/09/18 07:38:42;;;;;;;6.10;3.10;;;;;;;10.00;79.06;98759.77;106064;1271;139255;-76
2022/09/18 07:41:15;;;;;;;4.80;3.30;;;;;;;9.98;79.21;98762.69;106169;1271;97511;-77
2022/09/18 07:43:50;;;;;;;7.20;3.50;;;;;;;9.94;79.13;98762.54;106098;1271;139426;-77
2022/09/18 07:46:22;;;;;;;7.60;3.30;;;;;;;9.91;79.14;98762.52;106151;1271;108885;-76
2022/09/18 07:48:56;;;;;;;7.00;3.70;;;;;;;9.91;79.33;98763.94;106170;1271;108869;-76
2022/09/18 07:51:31;;;;;;;7.80;3.70;;;;;;;9.91;79.43;98766.72;106057;1271;139215;-76
2022/09/18 07:54:03;;;;;;;5.80;3.80;;;;;;;9.91;79.42;98766.88;106226;1271;96463;-75
2022/09/18 07:56:49;;;;;;;7.30;3.70;;;;;;;9.91;79.55;98767.25;106139;1271;138944;-75
2022/09/18 07:59:24;;;;;;;8.70;4.30;;;;;;;9.91;79.64;98768.95;106246;1271;107660;-76
2022/09/18 08:02:00;;;;;;;7.60;4.00;;;;;;;9.90;79.63;98773.00;106071;1271;139659;-75
2022/09/18 08:04:35;;;;;;;8.90;4.30;;;;;;;9.92;79.82;98773.96;106136;1271;96633;-75
2022/09/18 08:07:27;;;;;;;7.30;4.10;;;;;;;9.95;79.85;98774.98;106207;1271;96873;-76
2022/09/18 08:10:12;;;;;;;8.90;4.80;;;;;;;9.96;79.54;98774.77;106184;1272;110068;-77
2022/09/18 08:13:04;;;;;;;8.70;5.00;;;;;;;9.98;79.71;98775.02;106122;1271;109223;-77
2022/09/18 08:15:53;;;;;;;8.20;4.80;;;;;;;10.02;79.62;98774.45;106207;1271;108577;-78
2022/09/18 08:18:44;;;;;;;7.60;4.90;;;;;;;10.04;79.38;98772.77;106171;1271;96862;-76
2022/09/18 08:21:34;;;;;;;6.40;4.30;;;;;;;10.06;79.43;98771.47;106020;1273;138906;-77
2022/09/18 08:24:11;;;;;;;8.40;4.40;;;;;;;10.11;79.48;98773.79;106189;1271;110680;-77
2022/09/18 08:26:44;;;;;;;10.50;4.70;;;;;;;10.16;79.32;98771.77;106061;1271;139892;-76
2022/09/18 08:29:18;;;;;;;7.50;3.60;;;;;;;10.20;79.10;98773.30;106175;1271;107761;-77
2022/09/18 08:32:01;;;;;;;6.10;3.70;;;;;;;10.27;79.07;98771.21;106125;1271;139604;-77
2022/09/18 08:34:40;;;;;;;7.50;3.40;;;;;;;10.36;78.94;98769.69;106195;1271;96610;-76
2022/09/18 08:37:14;;;;;;;7.80;3.40;;;;;;;10.41;78.44;98773.59;106158;1271;111401;-76
2022/09/18 08:40:09;;;;;;;9.90;3.60;;;;;;;10.47;78.29;98766.14;106231;1271;108833;-76
2022/09/18 08:43:09;;;;;;;6.90;3.30;;;;;;;10.56;78.36;98768.92;106584;1271;107621;-76
2022/09/18 08:45:54;;;;;;;6.30;3.20;;;;;;;10.65;78.19;98769.80;106087;1271;137968;-76
2022/09/18 08:48:31;;;;;;;5.60;3.30;;;;;;;10.78;78.24;98771.38;106128;1271;96810;-76
2022/09/18 08:51:12;;;;;;;8.00;3.40;;;;;;;10.90;78.09;98767.52;106024;1273;138168;-77
2022/09/18 08:53:50;;;;;;;8.60;3.80;;;;;;;11.03;77.63;98767.11;106114;1271;108008;-75
2022/09/18 08:56:42;;;;;;;8.30;3.40;;;;;;;11.18;77.27;98761.59;106048;1271;137983;-78
2022/09/18 08:59:29;;;;;;;8.90;4.00;;;;;;;11.28;77.10;98759.74;106212;1271;96491;-76
2022/09/18 09:02:16;;;;;;;6.70;4.00;;;;;;;11.39;77.01;98757.55;105967;1271;138926;-75
2022/09/18 09:04:53;;;;;;;8.30;3.70;;;;;;;11.47;76.76;98754.98;106075;1271;109994;-76
2022/09/18 09:07:44;;;;;;;5.60;3.30;;;;;;;11.49;76.33;98754.30;106191;1271;108864;-79
2022/09/18 09:10:33;;;;;;;9.70;3.80;;;;;;;11.50;76.04;98756.17;106179;1271;108924;-77
2022/09/18 09:13:25;;;;;;;8.70;4.20;;;;;;;11.53;75.96;98759.69;106199;1271;96481;-77
2022/09/18 09:16:05;;;;;;;6.80;3.60;;;;;;;11.57;76.17;98756.31;107771;1271;94882;-77
2022/09/18 09:18:48;;;;;;;7.20;3.60;;;;;;;11.63;76.30;98760.81;107033;1271;110073;-77
2022/09/18 09:21:24;;;;;;;7.70;3.60;;;;;;;11.67;76.04;98760.04;106057;1271;139368;-77
2022/09/18 09:24:16;;;;;;;8.10;3.40;;;;;;;11.76;75.86;98758.10;107738;1271;108931;-78
2022/09/18 09:27:19;;;;;;;6.80;3.60;;;;;;;11.95;75.64;98759.23;107637;1271;138201;-76
2022/09/18 09:30:13;;;;;;;8.20;3.40;;;;;;;12.25;75.30;98764.17;107787;1271;94709;-79
2022/09/18 09:33:16;;;;;;;7.40;2.80;;;;;;;12.63;74.76;98755.15;107521;1273;138792;-77
2022/09/18 09:36:11;;;;;;;7.00;3.30;;;;;;;13.17;74.51;98757.89;107797;1271;109249;-77
2022/09/18 09:38:54;;;;;;;5.60;2.90;;;;;;;13.62;73.53;98749.77;107657;1271;139901;-78
2022/09/18 09:41:34;;;;;;;4.60;2.90;;;;;;;13.89;72.02;98754.56;107778;1271;94519;-76
2022/09/18 09:44:22;;;;;;;6.20;2.50;;;;;;;14.11;72.05;98756.54;107686;1271;139023;-77
2022/09/18 09:47:01;;;;;;;5.70;2.70;;;;;;;14.67;72.19;98758.67;107724;1271;110445;-76
2022/09/18 09:49:43;;;;;;;4.80;2.30;;;;;;;15.29;71.28;98754.22;106822;1271;138410;-76
2022/09/18 09:52:21;;;;;;;4.30;2.20;;;;;;;15.72;69.47;98750.31;106150;1271;107588;-76
2022/09/18 09:55:01;;;;;;;8.50;2.50;;;;;;;15.99;68.28;98762.95;106164;1271;97220;-76
2022/09/18 09:57:40;;;;;;;3.70;2.00;;;;;;;16.12;66.82;98763.83;106102;1271;138156;-76
2022/09/18 10:00:18;;;;;;;5.80;2.80;;;;;;;16.06;65.82;98762.23;106862;1271;110061;-75
2022/09/18 10:03:09;;;;;;;4.60;2.30;;;;;;;15.94;65.29;98763.80;107634;1271;138911;-77
2022/09/18 10:05:51;;;;;;;4.30;2.20;;;;;;;15.75;64.63;98765.13;107778;1271;107610;-76
2022/09/18 10:08:32;;;;;;;6.10;2.50;;;;;;;15.64;64.92;98770.34;107574;1271;136408;-75
2022/09/18 10:11:10;;;;;;;6.60;2.40;;;;;;;15.61;64.82;98768.99;107763;1271;94836;-75
2022/09/18 10:13:49;;;;;;;6.10;2.30;;;;;;;15.49;64.52;98772.90;107683;1271;138265;-79
2022/09/18 10:16:24;;;;;;;5.80;2.10;;;;;;;15.27;64.09;98779.95;107764;1271;108845;-79
2022/09/18 10:18:59;;;;;;;3.30;1.90;;;;;;;15.06;64.19;98784.62;106310;1271;108975;-79
2022/09/18 10:21:35;;;;;;;8.00;2.50;;;;;;;14.90;64.34;98785.81;106131;1271;137702;-79
2022/09/18 10:24:14;;;;;;;;;;;;;;;14.82;64.57;98785.53;106207;1271;96466;-78
2022/09/18 10:26:51;;;;;;;7.20;2.60;;;;;;;14.74;64.72;98792.81;106141;1271;124370;-78
2022/09/18 10:29:23;;;;;;;6.00;2.50;;;;;;;14.68;64.61;98791.48;106219;1271;106197;-78
2022/09/18 10:32:00;;;;;;;6.60;2.50;;;;;;;14.63;64.64;98794.10;106065;1271;138215;-77
2022/09/18 10:34:44;;;;;;;3.70;2.20;;;;;;;14.60;64.56;98791.90;106249;1271;96488;-77
2022/09/18 10:37:36;;;;;;;8.80;2.40;;;;;;;14.55;64.71;98795.74;106106;1273;96429;-77
2022/09/18 10:40:31;;;;;;;3.60;2.30;;;;;;;14.54;64.79;98793.91;106173;1274;112005;-80
2022/09/18 10:43:05;;;;;;;7.10;2.80;;;;;;;14.50;64.63;98792.70;106480;1271;109359;-80
2022/09/18 10:45:41;;;;;;;7.70;2.40;;;;;;;14.45;64.60;98796.09;106072;1271;138337;-77
2022/09/18 10:48:26;;;;;;;5.70;2.40;;;;;;;14.44;64.63;98794.56;106276;1271;96500;-79
2022/09/18 10:51:00;;;;;;;5.80;2.50;;;;;;;14.37;64.24;98796.65;106038;1271;138618;-77
2022/09/18 10:54:05;;;;;;;4.90;2.60;;;;;;;14.31;64.33;98801.59;106186;1271;111178;-79
2022/09/18 10:56:54;;;;;;;5.30;2.50;;;;;;;14.30;64.15;98802.34;106070;1273;138161;-83
2022/09/18 10:59:37;;;;;;;5.80;2.70;;;;;;;14.33;64.01;98805.86;106158;1271;108841;-79
2022/09/18 11:02:20;;;;;;;7.10;3.10;;;;;;;14.37;64.05;98809.27;105965;1273;139801;-78
2022/09/18 11:04:53;;;;;;;5.60;2.50;;;;;;;14.42;64.21;98810.95;106176;1271;96607;-78
2022/09/18 11:07:26;;;;;;;5.70;2.70;;;;;;;14.42;63.95;98805.74;106064;1273;110101;-78
2022/09/18 11:10:08;;;;;;;6.40;2.60;;;;;;;14.39;63.92;98805.06;106165;1270;109052;-77
2022/09/18 11:12:50;;;;;;;6.00;2.70;;;;;;;14.35;63.94;98807.95;106118;1271;109051;-77
2022/09/18 11:15:32;;;;;;;3.60;2.30;;;;;;;14.33;63.91;98812.31;106047;1271;139215;-78
2022/09/18 11:18:14;;;;;;;4.90;2.40;;;;;;;14.32;63.96;98811.33;106203;1271;95361;-78
2022/09/18 11:20:50;;;;;;;4.90;2.70;;;;;;;14.31;63.90;98807.53;106021;1273;138145;-78
2022/09/18 11:23:30;;;;;;;5.70;2.70;;;;;;;14.29;63.69;98810.86;106173;1271;108923;-77
2022/09/18 11:26:19;;;;;;;5.30;2.60;;;;;;;14.28;63.48;98813.89;106001;1272;138341;-78
2022/09/18 11:29:01;;;;;;;;;;;;;;;14.26;63.55;98810.70;106128;1273;96543;-79
2022/09/18 11:31:46;;;;;;;8.40;2.30;;;;;;;14.24;63.54;98815.58;106035;1273;124758;-79
2022/09/18 11:34:27;;;;;;;4.30;2.80;;;;;;;14.25;63.68;98817.45;106162;1273;111121;-79
2022/09/18 11:37:05;;;;;;;5.60;2.50;;;;;;;14.25;63.53;98814.27;106231;1271;108852;-78
2022/09/18 11:39:41;;;;;;;7.70;2.70;;;;;;;14.24;63.46;98814.36;106003;1271;138421;-78
2022/09/18 11:42:18;;;;;;;9.00;3.00;;;;;;;14.26;63.31;98810.73;106167;1271;96452;-77
2022/09/18 11:44:51;;;;;;;3.60;2.40;;;;;;;14.26;63.27;98809.99;106063;1271;138161;-77
2022/09/18 11:47:34;;;;;;;5.00;2.80;;;;;;;14.27;63.25;98810.30;106224;1271;110278;-77
2022/09/18 11:50:13;;;;;;;4.80;2.70;;;;;;;14.31;63.26;98812.05;106086;1271;140027;-81
2022/09/18 11:52:50;;;;;;;5.40;2.60;;;;;;;14.36;62.91;98810.73;106188;1271;107429;-77
2022/09/18 11:55:31;;;;;;;4.20;2.30;;;;;;;14.33;62.64;98808.60;106222;1271;96542;-78
2022/09/18 11:58:06;;;;;;;4.90;2.30;;;;;;;14.28;62.62;98811.10;106195;1271;96471;-77
2022/09/18 12:00:43;;;;;;;6.10;2.40;;;;;;;14.25;62.48;98811.15;106170;1273;111145;-77
2022/09/18 12:03:21;;;;;;;5.10;2.50;;;;;;;14.22;62.62;98809.41;106045;1273;138296;-78
2022/09/18 12:05:58;;;;;;;6.10;2.50;;;;;;;14.20;62.27;98807.11;106140;1271;108761;-79
2022/09/18 12:08:44;;;;;;;4.10;2.30;;;;;;;14.17;62.26;98803.64;106029;1271;138249;-78